createdAt,value
2017-10-27T00:00:29.589Z,12.10
2017-10-27T00:02:57.067Z,12.10
2017-10-27T00:05:24.554Z,12.10
2017-10-27T00:07:52.052Z,12.10
2017-10-27T00:10:19.540Z,12.10
2017-10-27T00:12:47.031Z,12.20
2017-10-27T00:15:14.520Z,12.20
2017-10-27T00:17:42.007Z,12.10
2017-10-27T00:20:09.520Z,12.10
2017-10-27T00:22:37.050Z,12.20
2017-10-27T00:25:05.330Z,12.20
2017-10-27T00:27:33.602Z,12.20
2017-10-27T00:30:01.867Z,12.20
2017-10-27T00:32:30.127Z,12.20
2017-10-27T00:34:57.611Z,12.10
2017-10-27T00:37:25.864Z,12.10
2017-10-27T00:39:53.352Z,12.10
2017-10-27T00:42:20.867Z,12.20
2017-10-27T00:44:48.368Z,12.10
2017-10-27T00:47:16.632Z,12.10
2017-10-27T00:49:44.871Z,12.10
2017-10-27T00:52:12.395Z,12.10
2017-10-27T00:54:39.884Z,12.00
2017-10-27T00:57:07.392Z,12.00
2017-10-27T00:59:35.650Z,11.90
2017-10-27T01:02:03.901Z,11.90
2017-10-27T01:04:31.383Z,11.90
2017-10-27T01:06:59.636Z,11.90
2017-10-27T01:09:27.153Z,11.80
2017-10-27T01:11:54.642Z,11.90
2017-10-27T01:14:22.127Z,11.90
2017-10-27T01:16:49.620Z,11.90
2017-10-27T01:19:17.096Z,11.80
2017-10-27T01:21:44.591Z,11.80
2017-10-27T01:24:12.093Z,11.80
2017-10-27T01:26:39.576Z,11.80
2017-10-27T01:29:07.056Z,11.80
2017-10-27T01:31:34.555Z,11.80
2017-10-27T01:34:02.056Z,11.70
2017-10-27T01:36:29.551Z,11.70
2017-10-27T01:38:57.800Z,11.60
2017-10-27T01:41:25.289Z,11.60
2017-10-27T01:43:53.533Z,11.60
2017-10-27T01:46:21.041Z,11.50
2017-10-27T01:48:48.523Z,11.50
2017-10-27T01:51:16.022Z,11.50
2017-10-27T01:53:43.523Z,11.50
2017-10-27T01:56:11.016Z,11.40
2017-10-27T01:58:38.513Z,11.40
2017-10-27T02:01:06.800Z,11.40
2017-10-27T02:03:35.045Z,11.40
2017-10-27T02:06:02.552Z,11.40
2017-10-27T02:08:30.036Z,11.40
2017-10-27T02:10:57.523Z,11.40
2017-10-27T02:13:25.007Z,11.40
2017-10-27T02:15:53.262Z,11.40
2017-10-27T02:18:21.515Z,11.30
2017-10-27T02:20:49.782Z,11.40
2017-10-27T02:23:17.311Z,11.40
2017-10-27T02:25:44.799Z,11.40
2017-10-27T02:28:12.293Z,11.40
2017-10-27T02:30:40.549Z,11.40
2017-10-27T02:33:08.033Z,11.30
2017-10-27T02:35:36.293Z,11.40
2017-10-27T02:38:03.781Z,11.40
2017-10-27T02:40:31.277Z,11.40
2017-10-27T02:42:58.753Z,11.40
2017-10-27T02:45:26.247Z,11.40
2017-10-27T02:47:53.728Z,11.30
2017-10-27T02:50:21.220Z,11.40
2017-10-27T02:52:48.713Z,11.40
2017-10-27T02:55:17.890Z,11.30
2017-10-27T02:57:45.387Z,11.30
2017-10-27T03:00:12.876Z,11.30
2017-10-27T03:02:40.368Z,11.30
2017-10-27T03:05:07.849Z,11.30
2017-10-27T03:07:35.349Z,11.30
2017-10-27T03:10:02.861Z,11.30
2017-10-27T03:12:31.107Z,11.30
2017-10-27T03:14:58.592Z,11.30
2017-10-27T03:17:26.857Z,11.30
2017-10-27T03:19:55.129Z,11.30
2017-10-27T03:22:23.420Z,11.30
2017-10-27T03:24:51.668Z,11.30
2017-10-27T03:27:19.165Z,11.30
2017-10-27T03:29:46.655Z,11.30
2017-10-27T03:32:14.167Z,11.30
2017-10-27T03:34:42.411Z,11.30
2017-10-27T03:37:09.905Z,11.30
2017-10-27T03:39:37.395Z,11.30
2017-10-27T03:42:04.886Z,11.20
2017-10-27T03:44:32.372Z,11.20
2017-10-27T03:47:00.628Z,11.20
2017-10-27T03:49:28.112Z,11.20
2017-10-27T03:51:56.389Z,11.20
2017-10-27T03:54:23.898Z,11.20
2017-10-27T03:56:51.382Z,11.20
2017-10-27T03:59:19.710Z,11.20
2017-10-27T04:01:47.195Z,11.20
2017-10-27T04:04:14.685Z,11.30
2017-10-27T04:06:42.945Z,11.30
2017-10-27T04:09:10.418Z,11.30
2017-10-27T04:11:37.938Z,11.30
2017-10-27T04:14:05.488Z,11.20
2017-10-27T04:16:33.239Z,11.20
2017-10-27T04:19:00.748Z,11.30
2017-10-27T04:21:29.157Z,11.20
2017-10-27T04:23:56.636Z,11.30
2017-10-27T04:26:24.152Z,11.20
2017-10-27T04:28:52.523Z,11.30
2017-10-27T04:31:20.144Z,11.30
2017-10-27T04:33:48.447Z,11.30
2017-10-27T04:36:15.956Z,11.20
2017-10-27T04:38:43.459Z,11.30
2017-10-27T04:41:10.960Z,11.20
2017-10-27T04:43:38.446Z,11.20
2017-10-27T04:46:05.948Z,11.20
2017-10-27T04:48:34.257Z,11.20
2017-10-27T04:51:01.771Z,11.20
2017-10-27T04:53:29.316Z,11.20
2017-10-27T04:55:56.851Z,11.20
2017-10-27T04:58:24.332Z,11.20
2017-10-27T05:00:51.824Z,11.20
2017-10-27T05:03:20.068Z,11.30
2017-10-27T05:05:47.564Z,11.30
2017-10-27T05:08:15.051Z,11.30
2017-10-27T05:10:42.540Z,11.30
2017-10-27T05:13:10.016Z,11.30
2017-10-27T05:15:37.503Z,11.40
2017-10-27T05:18:10.589Z,11.40
2017-10-27T05:20:43.831Z,11.40
2017-10-27T05:23:16.996Z,11.40
2017-10-27T05:25:44.539Z,11.40
2017-10-27T05:28:12.098Z,11.40
2017-10-27T05:30:39.599Z,11.40
2017-10-27T05:33:07.089Z,11.40
2017-10-27T05:35:35.385Z,11.40
2017-10-27T05:38:02.892Z,11.40
2017-10-27T05:40:30.921Z,11.40
2017-10-27T05:42:58.479Z,11.40
2017-10-27T05:45:25.982Z,11.40
2017-10-27T05:47:53.475Z,11.40
2017-10-27T05:50:21.732Z,11.30
2017-10-27T05:52:49.211Z,11.30
2017-10-27T05:55:17.463Z,11.30
2017-10-27T05:57:44.968Z,11.30
2017-10-27T06:00:12.480Z,11.30
2017-10-27T06:02:40.744Z,11.30
2017-10-27T06:05:08.402Z,11.30
2017-10-27T06:07:35.922Z,11.30
2017-10-27T06:10:03.520Z,11.30
2017-10-27T06:12:31.050Z,11.30
2017-10-27T06:14:58.540Z,11.30
2017-10-27T06:17:26.824Z,11.30
2017-10-27T06:19:54.348Z,11.30
2017-10-27T06:22:21.838Z,11.30
2017-10-27T06:24:49.399Z,11.30
2017-10-27T06:27:16.922Z,11.20
2017-10-27T06:29:44.441Z,11.20
2017-10-27T06:32:12.784Z,11.20
2017-10-27T06:34:40.296Z,11.20
2017-10-27T06:37:07.785Z,11.30
2017-10-27T06:39:35.294Z,11.20
2017-10-27T06:42:03.596Z,11.20
2017-10-27T06:44:31.072Z,11.20
2017-10-27T06:46:58.615Z,11.20
2017-10-27T06:49:26.149Z,11.20
2017-10-27T06:51:54.464Z,11.20
2017-10-27T06:54:21.946Z,11.20
2017-10-27T06:56:49.469Z,11.10
2017-10-27T06:59:16.989Z,11.10
2017-10-27T07:01:45.232Z,11.20
2017-10-27T07:04:12.723Z,11.10
2017-10-27T07:06:41.008Z,11.10
2017-10-27T07:09:08.560Z,11.10
2017-10-27T07:11:36.806Z,11.20
2017-10-27T07:14:04.763Z,11.10
2017-10-27T07:16:33.051Z,11.30
2017-10-27T07:19:01.355Z,11.40
2017-10-27T07:21:29.667Z,11.50
2017-10-27T07:23:57.192Z,11.50
2017-10-27T07:26:25.432Z,11.70
2017-10-27T07:28:52.919Z,11.70
2017-10-27T07:31:20.486Z,11.80
2017-10-27T07:33:48.733Z,12.00
2017-10-27T07:36:16.226Z,12.00
2017-10-27T07:38:44.589Z,12.30
2017-10-27T07:41:12.858Z,12.50
2017-10-27T07:43:40.347Z,12.50
2017-10-27T07:46:07.863Z,12.70
2017-10-27T07:48:35.471Z,12.70
2017-10-27T07:51:02.960Z,12.80
2017-10-27T07:53:30.444Z,12.70
2017-10-27T07:55:57.968Z,12.70
2017-10-27T07:58:25.519Z,12.80
2017-10-27T08:00:53.070Z,12.70
2017-10-27T08:03:20.552Z,12.80
2017-10-27T08:05:48.126Z,12.80
2017-10-27T08:08:15.616Z,12.90
2017-10-27T08:10:43.869Z,12.70
2017-10-27T08:13:11.348Z,12.70
2017-10-27T08:15:39.598Z,12.60
2017-10-27T08:18:07.099Z,12.60
2017-10-27T08:20:34.604Z,12.60
2017-10-27T08:23:02.140Z,12.50
2017-10-27T08:25:29.644Z,12.60
2017-10-27T08:27:57.140Z,12.80
2017-10-27T08:30:24.641Z,13.10
2017-10-27T08:32:52.175Z,13.10
2017-10-27T08:35:19.659Z,13.20
2017-10-27T08:37:47.140Z,13.20
2017-10-27T08:40:15.411Z,13.20
2017-10-27T08:42:42.908Z,13.20
2017-10-27T08:45:10.417Z,13.20
2017-10-27T08:47:37.916Z,13.30
2017-10-27T08:50:05.403Z,13.30
2017-10-27T08:52:32.894Z,13.30
2017-10-27T08:55:00.377Z,13.50
2017-10-27T08:57:28.633Z,14.00
2017-10-27T08:59:56.108Z,14.00
2017-10-27T09:02:24.365Z,13.90
2017-10-27T09:04:51.848Z,13.80
2017-10-27T09:07:19.363Z,13.70
2017-10-27T09:09:46.867Z,13.60
2017-10-27T09:12:14.457Z,13.40
2017-10-27T09:14:41.948Z,13.20
2017-10-27T09:17:09.429Z,13.10
2017-10-27T09:19:37.773Z,12.80
2017-10-27T09:22:05.305Z,12.70
2017-10-27T09:24:33.314Z,12.70
2017-10-27T09:27:00.801Z,12.60
2017-10-27T09:29:29.040Z,12.40
2017-10-27T09:31:56.524Z,12.40
2017-10-27T09:34:24.835Z,12.30
2017-10-27T09:36:52.319Z,12.30
2017-10-27T09:39:19.864Z,12.40
2017-10-27T09:41:47.413Z,12.50
2017-10-27T09:44:14.967Z,12.60
2017-10-27T09:46:42.457Z,12.80
2017-10-27T09:49:09.976Z,13.00
2017-10-27T09:51:37.477Z,13.30
2017-10-27T09:54:05.723Z,13.30
2017-10-27T09:56:33.211Z,13.30
2017-10-27T09:59:00.690Z,13.10
2017-10-27T10:01:28.186Z,13.00
2017-10-27T10:03:55.677Z,12.90
2017-10-27T10:06:23.171Z,12.70
2017-10-27T10:08:51.416Z,12.60
2017-10-27T10:11:18.904Z,12.50
2017-10-27T10:13:46.494Z,12.50
2017-10-27T10:16:13.991Z,12.40
2017-10-27T10:18:41.510Z,13.00
2017-10-27T10:21:09.003Z,13.80
2017-10-27T10:23:36.488Z,14.20
2017-10-27T10:26:04.837Z,14.30
2017-10-27T10:28:32.367Z,14.30
2017-10-27T10:30:59.943Z,14.10
2017-10-27T10:33:27.421Z,14.00
2017-10-27T10:35:54.937Z,14.50
2017-10-27T10:38:22.548Z,14.90
2017-10-27T10:40:50.145Z,14.90
2017-10-27T10:43:17.652Z,14.80
2017-10-27T10:45:45.155Z,14.40
2017-10-27T10:48:13.399Z,13.80
2017-10-27T10:50:41.387Z,13.70
2017-10-27T10:53:09.627Z,13.20
2017-10-27T10:55:37.130Z,13.20
2017-10-27T10:58:05.388Z,12.60
2017-10-27T11:00:32.907Z,12.60
2017-10-27T11:03:00.441Z,12.40
2017-10-27T11:05:27.936Z,12.20
2017-10-27T11:07:55.564Z,12.10
2017-10-27T11:10:23.061Z,12.10
2017-10-27T11:12:50.556Z,12.00
2017-10-27T11:15:18.805Z,11.80
2017-10-27T11:17:46.296Z,11.80
2017-10-27T11:20:13.801Z,11.80
2017-10-27T11:22:41.290Z,11.70
2017-10-27T11:25:09.549Z,11.70
2017-10-27T11:27:37.043Z,11.60
2017-10-27T11:30:05.297Z,11.70
2017-10-27T11:32:33.579Z,11.80
2017-10-27T11:35:01.856Z,11.90
2017-10-27T11:37:30.110Z,12.10
2017-10-27T11:39:57.587Z,12.10
2017-10-27T11:42:25.915Z,12.20
2017-10-27T11:44:53.413Z,12.20
2017-10-27T11:47:20.917Z,12.10
2017-10-27T11:49:48.507Z,12.10
2017-10-27T11:52:16.004Z,12.00
2017-10-27T11:54:44.255Z,11.90
2017-10-27T11:57:11.780Z,11.90
2017-10-27T11:59:39.279Z,11.90
2017-10-27T12:02:06.869Z,11.80
2017-10-27T12:04:34.357Z,11.90
2017-10-27T12:07:01.857Z,12.40
2017-10-27T12:09:29.391Z,14.20
2017-10-27T12:11:56.876Z,16.10
2017-10-27T12:14:24.369Z,17.90
2017-10-27T12:16:51.933Z,20.50
2017-10-27T12:19:19.417Z,23.30
2017-10-27T12:21:46.937Z,26.20
2017-10-27T12:24:14.427Z,27.90
2017-10-27T12:26:41.912Z,27.10
2017-10-27T12:29:09.424Z,31.20
2017-10-27T12:31:36.916Z,29.10
2017-10-27T12:34:04.393Z,28.40
2017-10-27T12:36:31.904Z,29.30
2017-10-27T12:38:59.435Z,28.00
2017-10-27T12:41:27.720Z,23.10
2017-10-27T12:43:55.208Z,23.00
2017-10-27T12:46:22.704Z,20.90
2017-10-27T12:48:50.227Z,19.00
2017-10-27T12:51:17.747Z,17.60
2017-10-27T12:53:45.279Z,16.50
2017-10-27T12:56:12.778Z,15.80
2017-10-27T12:58:40.275Z,15.20
2017-10-27T13:01:07.764Z,14.70
2017-10-27T13:03:36.026Z,14.10
2017-10-27T13:06:04.296Z,13.80
2017-10-27T13:08:31.811Z,13.80
2017-10-27T13:10:59.324Z,13.70
2017-10-27T13:13:26.810Z,13.60
2017-10-27T13:15:54.352Z,13.40
2017-10-27T13:18:22.596Z,13.30
2017-10-27T13:20:50.095Z,13.30
2017-10-27T13:23:18.341Z,13.10
2017-10-27T13:25:45.823Z,13.10
2017-10-27T13:28:14.074Z,13.30
2017-10-27T13:30:41.567Z,13.20
2017-10-27T13:33:09.049Z,13.30
2017-10-27T13:35:36.540Z,13.30
2017-10-27T13:38:04.020Z,13.20
2017-10-27T13:40:32.275Z,12.90
2017-10-27T13:42:59.755Z,12.90
2017-10-27T13:45:28.036Z,12.60
2017-10-27T13:47:56.278Z,12.50
2017-10-27T13:50:23.916Z,12.50
2017-10-27T13:52:51.392Z,12.50
2017-10-27T13:55:18.888Z,12.50
2017-10-27T13:57:47.129Z,13.00
2017-10-27T14:00:14.660Z,13.00
2017-10-27T14:02:42.171Z,15.10
2017-10-27T14:05:10.431Z,19.10
2017-10-27T14:07:37.930Z,19.10
2017-10-27T14:10:05.412Z,19.00
2017-10-27T14:12:32.907Z,19.00
2017-10-27T14:15:00.415Z,20.40
2017-10-27T14:17:27.914Z,20.40
2017-10-27T14:19:55.400Z,20.60
2017-10-27T14:22:23.673Z,21.70
2017-10-27T14:24:51.928Z,21.00
2017-10-27T14:27:19.419Z,20.90
2017-10-27T14:29:47.715Z,21.10
2017-10-27T14:32:15.347Z,21.10
2017-10-27T14:34:42.837Z,20.10
2017-10-27T14:37:10.328Z,19.30
2017-10-27T14:39:37.808Z,18.10
2017-10-27T14:42:06.060Z,16.10
2017-10-27T14:44:44.587Z,16.10
2017-10-27T14:47:12.169Z,15.50
2017-10-27T14:49:40.433Z,14.30
2017-10-27T14:52:08.700Z,13.80
2017-10-27T14:54:36.195Z,13.80
2017-10-27T14:57:03.673Z,13.40
2017-10-27T14:59:31.150Z,13.10
2017-10-27T15:01:58.663Z,12.80
2017-10-27T15:04:26.193Z,12.60
2017-10-27T15:06:53.685Z,12.50
2017-10-27T15:09:21.180Z,12.50
2017-10-27T15:11:48.660Z,12.40
2017-10-27T15:14:16.154Z,12.30
2017-10-27T15:16:43.656Z,12.20
2017-10-27T15:19:11.124Z,12.10
2017-10-27T15:21:38.707Z,12.10
2017-10-27T15:24:06.216Z,12.00
2017-10-27T15:26:33.712Z,12.00
2017-10-27T15:29:01.205Z,12.00
2017-10-27T15:31:28.700Z,12.00
2017-10-27T15:33:56.177Z,11.80
2017-10-27T15:36:23.767Z,11.80
2017-10-27T15:38:52.049Z,11.80
2017-10-27T15:41:20.321Z,11.70
2017-10-27T15:43:48.602Z,11.70
2017-10-27T15:46:16.136Z,11.70
2017-10-27T15:48:43.629Z,11.70
2017-10-27T15:51:11.145Z,11.60
2017-10-27T15:53:38.642Z,11.60
2017-10-27T15:56:06.129Z,11.50
2017-10-27T15:58:33.613Z,11.50
2017-10-27T16:01:01.100Z,11.50
2017-10-27T16:03:29.348Z,11.40
2017-10-27T16:05:56.836Z,11.40
2017-10-27T16:08:25.084Z,11.40
2017-10-27T16:10:52.582Z,11.40
2017-10-27T16:13:20.062Z,11.40
2017-10-27T16:15:47.607Z,11.30
2017-10-27T16:18:15.093Z,11.30
2017-10-27T16:20:42.583Z,11.20
2017-10-27T16:23:10.131Z,11.30
2017-10-27T16:25:37.667Z,11.20
2017-10-27T16:28:05.195Z,11.20
2017-10-27T16:30:32.718Z,11.10
2017-10-27T16:33:00.219Z,11.10
2017-10-27T16:35:27.703Z,11.10
2017-10-27T16:37:55.188Z,11.10
2017-10-27T16:40:22.683Z,11.10
2017-10-27T16:42:50.151Z,11.10
2017-10-27T16:45:17.697Z,11.10
2017-10-27T16:47:45.189Z,11.00
2017-10-27T16:50:12.704Z,11.10
2017-10-27T16:52:40.403Z,11.00
2017-10-27T16:55:07.945Z,11.00
2017-10-27T16:57:35.422Z,11.00
2017-10-27T17:00:02.912Z,11.00
2017-10-27T17:02:30.519Z,11.00
2017-10-27T17:04:58.027Z,11.10
2017-10-27T17:07:25.803Z,11.00
2017-10-27T17:09:53.337Z,11.00
2017-10-27T17:12:20.831Z,11.00
2017-10-27T17:14:49.145Z,11.00
2017-10-27T17:17:16.647Z,11.00
2017-10-27T17:19:44.140Z,10.90
2017-10-27T17:22:11.704Z,10.90
2017-10-27T17:24:39.180Z,10.90
2017-10-27T17:27:06.680Z,10.90
2017-10-27T17:29:34.156Z,10.90
2017-10-27T17:32:02.419Z,10.80
2017-10-27T17:34:30.111Z,10.70
2017-10-27T17:36:57.600Z,10.70
2017-10-27T17:39:25.071Z,10.70
2017-10-27T17:41:52.569Z,10.70
2017-10-27T17:44:21.764Z,10.70
2017-10-27T17:46:50.028Z,10.60
2017-10-27T17:49:17.508Z,10.60
2017-10-27T17:51:45.020Z,10.50
2017-10-27T17:54:12.491Z,10.50
2017-10-27T17:56:40.072Z,10.40
2017-10-27T17:59:08.333Z,10.30
2017-10-27T18:01:43.331Z,10.30
2017-10-27T18:04:10.864Z,10.30
2017-10-27T18:06:38.392Z,10.20
2017-10-27T18:09:06.655Z,10.30
2017-10-27T18:11:34.226Z,10.20
2017-10-27T18:14:02.487Z,10.20
2017-10-27T18:16:30.763Z,10.20
2017-10-27T18:18:58.290Z,10.20
2017-10-27T18:21:25.879Z,10.10
2017-10-27T18:23:53.480Z,10.10
2017-10-27T18:26:20.972Z,10.00
2017-10-27T18:28:48.528Z,10.10
2017-10-27T18:31:17.005Z,10.00
2017-10-27T18:33:44.483Z,10.00
2017-10-27T18:36:11.972Z,10.00
2017-10-27T18:38:40.223Z,10.00
2017-10-27T18:41:07.723Z,10.00
2017-10-27T18:43:35.264Z,9.90
2017-10-27T18:46:03.522Z,9.90
2017-10-27T18:48:30.999Z,9.80
2017-10-27T18:50:59.247Z,9.80
2017-10-27T18:53:26.724Z,9.70
2017-10-27T18:55:54.227Z,9.80
2017-10-27T18:58:21.733Z,9.70
2017-10-27T19:00:49.236Z,9.70
2017-10-27T19:03:16.747Z,9.60
2017-10-27T19:05:44.255Z,9.50
2017-10-27T19:08:11.739Z,9.50
2017-10-27T19:10:40.042Z,9.30
2017-10-27T19:13:07.549Z,9.30
2017-10-27T19:15:35.027Z,9.30
2017-10-27T19:18:02.517Z,9.20
2017-10-27T19:20:30.784Z,9.30
2017-10-27T19:22:58.275Z,9.20
2017-10-27T19:25:26.523Z,9.40
2017-10-27T19:27:53.999Z,9.30
2017-10-27T19:30:22.333Z,9.40
2017-10-27T19:32:49.815Z,9.40
2017-10-27T19:35:17.313Z,9.40
2017-10-27T19:37:44.806Z,9.40
2017-10-27T19:40:12.292Z,9.40
2017-10-27T19:42:39.790Z,9.40
2017-10-27T19:45:07.352Z,9.40
2017-10-27T19:47:34.835Z,9.40
2017-10-27T19:50:02.502Z,9.40
2017-10-27T19:52:30.044Z,9.40
2017-10-27T19:54:57.528Z,9.50
2017-10-27T19:57:25.008Z,9.50
2017-10-27T19:59:53.249Z,9.50
2017-10-27T20:02:20.752Z,9.50
2017-10-27T20:04:48.988Z,9.50
2017-10-27T20:07:16.524Z,9.50
2017-10-27T20:09:44.007Z,9.60
2017-10-27T20:12:11.503Z,9.60
2017-10-27T20:14:38.992Z,9.60
2017-10-27T20:17:06.503Z,9.60
2017-10-27T20:19:34.747Z,9.70
2017-10-27T20:22:02.304Z,9.70
2017-10-27T20:24:29.836Z,9.70
2017-10-27T20:26:57.351Z,9.70
2017-10-27T20:29:25.622Z,9.80
2017-10-27T20:31:53.170Z,9.70
2017-10-27T20:34:20.692Z,9.80
2017-10-27T20:36:48.199Z,9.70
2017-10-27T20:39:15.737Z,9.60
2017-10-27T20:41:43.228Z,9.70
2017-10-27T20:44:11.529Z,9.60
2017-10-27T20:46:39.016Z,9.60
2017-10-27T20:49:06.485Z,9.60
2017-10-27T20:51:33.965Z,9.50
2017-10-27T20:54:01.450Z,9.50
2017-10-27T20:56:28.985Z,9.50
2017-10-27T20:58:56.475Z,9.50
2017-10-27T21:01:23.969Z,9.50
2017-10-27T21:03:51.455Z,9.60
2017-10-27T21:06:18.951Z,9.60
2017-10-27T21:08:46.428Z,9.60
2017-10-27T21:11:14.716Z,9.60
2017-10-27T21:13:42.209Z,9.60
2017-10-27T21:16:09.679Z,9.60
2017-10-27T21:18:37.926Z,9.40
2017-10-27T21:21:06.188Z,9.40
2017-10-27T21:23:33.679Z,9.40
2017-10-27T21:26:01.955Z,9.30
2017-10-27T21:28:30.239Z,9.30
2017-10-27T21:30:58.480Z,9.20
2017-10-27T21:33:26.004Z,9.20
2017-10-27T21:35:53.484Z,9.20
2017-10-27T21:38:20.963Z,9.20
2017-10-27T21:40:48.449Z,9.20
2017-10-27T21:43:16.697Z,9.10
2017-10-27T21:45:44.175Z,9.10
2017-10-27T21:48:12.411Z,9.10
2017-10-27T21:50:39.908Z,9.10
2017-10-27T21:53:08.149Z,9.10
2017-10-27T21:55:35.653Z,9.10
2017-10-27T21:58:03.127Z,9.10
2017-10-27T22:00:30.694Z,9.10
2017-10-27T22:02:58.192Z,9.10
2017-10-27T22:05:26.490Z,9.10
2017-10-27T22:07:53.992Z,9.10
2017-10-27T22:10:21.601Z,9.10
2017-10-27T22:12:49.848Z,9.00
2017-10-27T22:15:17.351Z,9.00
2017-10-27T22:17:45.595Z,9.00
2017-10-27T22:20:13.074Z,9.00
2017-10-27T22:22:41.339Z,9.00
2017-10-27T22:25:08.880Z,9.00
2017-10-27T22:27:36.371Z,8.90
2017-10-27T22:30:04.720Z,8.90
2017-10-27T22:32:32.196Z,8.90
2017-10-27T22:35:00.455Z,8.90
2017-10-27T22:37:27.948Z,8.90
2017-10-27T22:39:55.429Z,8.90
2017-10-27T22:42:22.930Z,8.90
2017-10-27T22:44:50.464Z,8.90
2017-10-27T22:47:17.956Z,9.00
2017-10-27T22:49:46.253Z,9.10
2017-10-27T22:52:13.780Z,9.00
2017-10-27T22:54:41.267Z,9.10
2017-10-27T22:57:09.928Z,9.10
2017-10-27T22:59:37.407Z,9.10
2017-10-27T23:02:05.654Z,9.10
2017-10-27T23:04:33.126Z,9.10
2017-10-27T23:07:00.604Z,9.10
2017-10-27T23:09:28.083Z,9.20
2017-10-27T23:11:55.588Z,9.20
2017-10-27T23:14:23.097Z,9.20
2017-10-27T23:16:50.596Z,9.30
2017-10-27T23:19:18.090Z,9.30
2017-10-27T23:21:45.576Z,9.30
2017-10-27T23:24:13.072Z,9.30
2017-10-27T23:26:40.566Z,9.40
2017-10-27T23:29:08.808Z,9.30
2017-10-27T23:31:36.308Z,9.30
2017-10-27T23:34:03.801Z,9.30
2017-10-27T23:36:31.354Z,9.30
2017-10-27T23:38:58.838Z,9.30
2017-10-27T23:41:26.363Z,9.30
2017-10-27T23:43:54.735Z,9.30
2017-10-27T23:46:22.244Z,9.30
2017-10-27T23:48:49.723Z,9.30
2017-10-27T23:51:18.091Z,9.30
2017-10-27T23:53:46.342Z,9.30
2017-10-27T23:56:13.829Z,9.30
2017-10-27T23:58:41.319Z,9.30
